Time;durP1;ratioP1;P1;durP2;ratioP2;P2;SDS_P1;SDS_P2;PMS_P1;PMS_P2;Temp;Humidity;BMP_temperature;BMP_pressure;BME280_temperature;BME280_humidity;BME280_pressure;Samples;Min_cycle;Max_cycle;Signal;HPM_P1;HPM_P2
2021/12/12 00:00:03;;;;;;;30.38;14.02;;;;;;;3.73;96.41;102007.66;5037201;28;20049;-71
2021/12/12 00:02:49;;;;;;;26.10;13.20;;;;;;;3.79;95.58;102011.59;5042922;28;20112;-71
2021/12/12 00:05:18;;;;;;;27.13;14.20;;;;;;;3.74;96.24;102009.34;5041078;28;20753;-71
2021/12/12 00:07:44;;;;;;;34.22;15.05;;;;;;;3.74;96.16;102012.06;5025962;28;20083;-71
2021/12/12 00:10:15;;;;;;;31.45;13.55;;;;;;;3.72;96.43;102005.94;5039985;28;20439;-71
2021/12/12 00:12:45;;;;;;;26.10;13.98;;;;;;;3.74;96.11;102003.91;5045159;28;20120;-71
2021/12/12 00:15:13;;;;;;;26.13;13.07;;;;;;;3.74;96.37;102000.34;5038592;28;20036;-71
2021/12/12 00:17:39;;;;;;;35.08;13.48;;;;;;;3.78;95.90;102005.31;5044553;28;20017;-71
2021/12/12 00:20:06;;;;;;;28.90;13.23;;;;;;;3.79;96.36;102001.59;5043330;28;20481;-71
2021/12/12 00:22:32;;;;;;;30.02;13.05;;;;;;;3.80;96.08;101991.56;5043196;28;20064;-71
2021/12/12 00:24:58;;;;;;;28.40;12.07;;;;;;;3.82;95.99;101995.84;5028941;28;20061;-71
2021/12/12 00:27:24;;;;;;;29.40;12.25;;;;;;;3.85;95.61;101994.66;5032155;28;20032;-71
2021/12/12 00:29:50;;;;;;;33.75;12.50;;;;;;;3.87;95.95;101995.38;5041389;28;20017;-71
2021/12/12 00:32:19;;;;;;;25.85;11.35;;;;;;;3.89;95.78;101988.75;5042405;28;20033;-71
2021/12/12 00:34:52;;;;;;;24.55;12.32;;;;;;;3.88;96.15;101978.91;5038825;28;20025;-72
2021/12/12 00:37:18;;;;;;;29.30;12.43;;;;;;;3.88;96.15;101978.03;5024097;28;20109;-71
2021/12/12 00:39:50;;;;;;;27.30;10.95;;;;;;;3.94;95.65;101988.28;5035360;28;20492;-71
2021/12/12 00:42:20;;;;;;;25.00;11.55;;;;;;;3.93;95.94;101980.28;5034615;28;20108;-71
2021/12/12 00:44:49;;;;;;;22.60;10.85;;;;;;;3.99;95.17;101990.50;5043444;28;20033;-71
2021/12/12 00:47:15;;;;;;;25.38;11.23;;;;;;;3.98;95.26;101981.50;5040410;28;20028;-71
2021/12/12 00:49:42;;;;;;;27.67;11.15;;;;;;;4.00;95.67;101976.75;5030666;28;20083;-71
2021/12/12 00:52:12;;;;;;;25.55;10.77;;;;;;;4.02;95.57;101974.75;5031570;28;20056;-71
2021/12/12 00:54:38;;;;;;;27.40;10.40;;;;;;;4.01;95.40;101969.47;5029075;28;20034;-72
2021/12/12 00:57:08;;;;;;;26.92;11.45;;;;;;;4.08;95.60;101960.50;5024131;28;20080;-71
2021/12/12 00:59:34;;;;;;;20.98;11.00;;;;;;;4.04;95.29;101956.41;5029985;28;20017;-72
2021/12/12 01:02:01;;;;;;;24.20;9.93;;;;;;;4.03;95.64;101951.97;5044951;28;20119;-71
2021/12/12 01:04:31;;;;;;;26.40;11.02;;;;;;;4.07;95.38;101953.38;5042325;28;20099;-71
2021/12/12 01:07:04;;;;;;;26.02;10.50;;;;;;;4.10;95.57;101954.91;5045121;28;20099;-72
2021/12/12 01:09:40;;;;;;;27.05;12.95;;;;;;;4.05;95.58;101952.66;5044053;28;20029;-71
2021/12/12 01:12:10;;;;;;;26.55;10.90;;;;;;;4.07;95.77;101958.81;5041357;28;20037;-71
2021/12/12 01:14:42;;;;;;;22.95;10.40;;;;;;;4.04;96.15;101952.84;5042657;28;20025;-72
2021/12/12 01:17:12;;;;;;;23.40;11.20;;;;;;;4.05;96.01;101955.38;5038760;28;20034;-71
2021/12/12 01:19:42;;;;;;;21.77;9.98;;;;;;;4.03;96.58;101949.25;5043380;28;20029;-71
2021/12/12 01:22:15;;;;;;;25.23;10.45;;;;;;;4.04;96.36;101958.28;5043338;28;20032;-71
2021/12/12 01:24:45;;;;;;;26.92;10.20;;;;;;;4.06;96.41;101953.53;5029520;28;20029;-71
2021/12/12 01:27:12;;;;;;;29.38;11.77;;;;;;;4.08;95.82;101955.06;5023669;28;20025;-71
2021/12/12 01:29:39;;;;;;;21.25;10.63;;;;;;;4.09;95.94;101954.06;5031220;28;20030;-71
2021/12/12 01:32:11;;;;;;;30.23;11.73;;;;;;;4.10;96.06;101958.47;5023897;28;20076;-71
2021/12/12 01:34:38;;;;;;;28.25;10.48;;;;;;;4.10;96.16;101952.19;5037321;28;20509;-70
2021/12/12 01:37:34;;;;;;;26.15;10.80;;;;;;;4.13;95.94;101955.44;5042628;28;20025;-71
2021/12/12 01:40:14;;;;;;;27.40;11.40;;;;;;;4.13;96.53;101954.59;5024329;28;20037;-71
2021/12/12 01:42:43;;;;;;;24.40;9.60;;;;;;;4.16;95.95;101957.00;5026119;28;20141;-71
2021/12/12 01:45:14;;;;;;;29.70;11.40;;;;;;;4.18;95.92;101954.09;5037190;28;20071;-70
2021/12/12 01:48:00;;;;;;;30.90;11.60;;;;;;;4.16;96.38;101957.00;5026879;28;20021;-70
2021/12/12 01:50:34;;;;;;;29.95;10.75;;;;;;;4.15;96.80;101964.28;5023380;28;20041;-70
2021/12/12 01:53:04;;;;;;;28.92;12.02;;;;;;;4.16;96.63;101957.00;5040583;28;20515;-71
2021/12/12 01:55:53;;;;;;;27.88;10.50;;;;;;;4.21;96.61;101962.81;5034882;28;20056;-70
2021/12/12 01:58:23;;;;;;;24.50;10.68;;;;;;;4.19;96.48;101961.25;5041599;28;20022;-70
2021/12/12 02:01:14;;;;;;;29.02;11.48;;;;;;;4.19;97.13;101953.94;5040941;28;20064;-70
2021/12/12 02:03:43;;;;;;;25.38;10.82;;;;;;;4.18;97.01;101954.09;5035739;28;20052;-70
2021/12/12 02:06:12;;;;;;;24.38;11.07;;;;;;;4.18;97.26;101954.09;5036628;28;20017;-70
2021/12/12 02:08:39;;;;;;;28.02;11.32;;;;;;;4.16;97.36;101944.25;5023712;28;20048;-70
2021/12/12 02:11:10;;;;;;;26.88;10.50;;;;;;;4.25;97.18;101949.72;5025985;28;20151;-70
2021/12/12 02:13:42;;;;;;;26.20;11.43;;;;;;;4.20;97.31;101950.19;5039464;28;20048;-70
2021/12/12 02:16:09;;;;;;;27.10;11.32;;;;;;;4.22;97.65;101955.50;5022446;28;20044;-70
2021/12/12 02:18:38;;;;;;;27.58;10.95;;;;;;;4.25;97.42;101944.28;5033502;28;20083;-70
2021/12/12 02:21:23;;;;;;;29.85;11.02;;;;;;;4.25;97.54;101944.28;5023799;28;20060;-70
2021/12/12 02:35:22;;;;;;;26.48;10.30;;;;;;;4.35;97.46;101947.72;5038151;28;20095;-70
2021/12/12 02:37:51;;;;;;;27.33;11.70;;;;;;;4.28;98.46;101941.25;5031989;28;20009;-69
2021/12/12 02:40:28;;;;;;;28.55;10.85;;;;;;;4.29;98.83;101937.50;5044943;28;20029;-70
2021/12/12 02:42:54;;;;;;;26.20;11.25;;;;;;;4.32;98.19;101926.31;5039701;28;20028;-70
2021/12/12 02:45:21;;;;;;;23.77;10.35;;;;;;;4.29;98.89;101911.16;5032598;28;20037;-70
2021/12/12 02:47:56;;;;;;;30.50;10.45;;;;;;;4.32;98.97;101915.44;5036812;28;20032;-70
2021/12/12 02:50:28;;;;;;;23.35;10.23;;;;;;;4.30;99.40;101915.56;5040660;28;20040;-70
2021/12/12 02:52:58;;;;;;;28.13;10.65;;;;;;;4.31;98.99;101916.44;5045724;28;20032;-70
2021/12/12 02:57:51;;;;;;;29.88;9.82;;;;;;;4.31;100.00;101914.59;5032746;23;20080;-70
2021/12/12 03:00:19;;;;;;;24.90;10.50;;;;;;;4.35;99.50;101896.91;5026100;28;20025;-70
2021/12/12 03:02:48;;;;;;;26.42;11.07;;;;;;;4.36;100.00;101905.94;5026720;28;20025;-70
2021/12/12 03:05:16;;;;;;;28.30;10.90;;;;;;;4.37;100.00;101911.22;5026408;28;20112;-70
2021/12/12 03:07:42;;;;;;;29.00;11.10;;;;;;;4.39;100.00;101916.47;5026568;28;20341;-70
2021/12/12 03:10:12;;;;;;;26.85;10.65;;;;;;;4.39;100.00;101911.03;5025400;28;20053;-70
2021/12/12 03:12:38;;;;;;;26.65;9.95;;;;;;;4.37;100.00;101903.03;5026478;28;20457;-70
2021/12/12 03:15:27;;;;;;;30.48;11.60;;;;;;;4.37;100.00;101904.91;5025193;28;20022;-69
2021/12/12 03:17:58;;;;;;;26.02;11.45;;;;;;;4.40;100.00;101901.84;5026230;28;20467;-70
2021/12/12 03:20:31;;;;;;;26.92;10.82;;;;;;;4.50;100.00;101907.16;5025365;28;20468;-70
2021/12/12 03:23:07;;;;;;;26.10;10.38;;;;;;;4.46;100.00;101893.06;5026832;28;20021;-70
2021/12/12 03:25:36;;;;;;;29.35;10.80;;;;;;;4.46;100.00;101887.63;5026112;28;20037;-70
2021/12/12 03:28:04;;;;;;;27.10;11.40;;;;;;;4.52;100.00;101888.81;5025755;28;20005;-70
2021/12/12 03:30:29;;;;;;;24.13;11.18;;;;;;;4.51;100.00;101879.81;5025087;28;20703;-70
2021/12/12 03:32:54;;;;;;;28.25;11.10;;;;;;;4.55;100.00;101861.25;5026045;28;20064;-70
2021/12/12 03:35:20;;;;;;;24.20;10.48;;;;;;;4.61;100.00;101876.91;5025211;28;20391;-70
2021/12/12 03:37:46;;;;;;;25.33;11.68;;;;;;;4.59;100.00;101868.09;5026420;28;20026;-70
2021/12/12 03:40:26;;;;;;;30.65;11.00;;;;;;;4.62;100.00;101879.50;5024877;28;20120;-70
2021/12/12 03:42:54;;;;;;;24.40;11.50;;;;;;;4.63;100.00;101861.28;5025856;28;20037;-70
2021/12/12 03:45:21;;;;;;;36.55;13.27;;;;;;;4.63;100.00;101869.47;5024745;28;20060;-70
2021/12/12 03:47:55;;;;;;;32.90;12.65;;;;;;;4.64;100.00;101872.00;5026058;28;20064;-70
2021/12/12 03:50:27;;;;;;;27.10;11.88;;;;;;;4.59;100.00;101868.94;5024203;28;20432;-70
2021/12/12 03:52:53;;;;;;;29.25;12.75;;;;;;;4.70;100.00;101875.91;5026417;28;20548;-70
2021/12/12 03:55:19;;;;;;;31.20;13.25;;;;;;;4.63;100.00;101867.59;5024177;28;20025;-70
2021/12/12 03:57:47;;;;;;;27.45;12.25;;;;;;;4.61;100.00;101883.25;5025828;28;20053;-70
2021/12/12 04:00:23;;;;;;;25.13;13.00;;;;;;;4.62;100.00;101882.22;5024063;28;20037;-70
2021/12/12 04:02:49;;;;;;;27.42;13.23;;;;;;;4.66;100.00;101872.72;5025683;28;20347;-71
2021/12/12 04:05:15;;;;;;;28.55;13.38;;;;;;;4.71;100.00;101866.72;5025429;28;20017;-69
2021/12/12 04:07:40;;;;;;;27.55;13.90;;;;;;;4.76;100.00;101874.41;5025212;28;20026;-70
2021/12/12 04:10:09;;;;;;;32.33;15.23;;;;;;;4.68;100.00;101872.53;5024757;28;20218;-70
2021/12/12 04:12:34;;;;;;;29.75;13.27;;;;;;;4.68;100.00;101881.53;5025137;28;20087;-70
2021/12/12 04:14:59;;;;;;;29.90;15.98;;;;;;;4.69;100.00;101885.97;5024683;28;20480;-70
2021/12/12 04:17:30;;;;;;;27.15;14.13;;;;;;;4.81;100.00;101883.75;5025410;28;20022;-70
2021/12/12 04:19:58;;;;;;;28.98;14.15;;;;;;;4.76;100.00;101879.84;5024929;28;20532;-70
2021/12/12 04:22:24;;;;;;;27.90;14.30;;;;;;;4.79;100.00;101879.53;5025002;28;20017;-70
2021/12/12 04:24:54;;;;;;;24.95;13.98;;;;;;;4.83;100.00;101878.16;5025396;28;20064;-70
2021/12/12 04:27:20;;;;;;;27.38;15.82;;;;;;;4.85;100.00;101878.84;5024745;28;20383;-70
2021/12/12 04:29:48;;;;;;;26.45;13.63;;;;;;;4.85;100.00;101881.56;5023244;28;20022;-70
2021/12/12 04:32:17;;;;;;;26.15;12.77;;;;;;;4.84;100.00;101879.88;5024951;28;20380;-70
2021/12/12 04:34:47;;;;;;;21.60;12.05;;;;;;;4.97;100.00;101873.91;5025602;28;20101;-70
2021/12/12 04:37:13;;;;;;;20.27;11.48;;;;;;;4.91;100.00;101879.00;5024709;28;20072;-70
2021/12/12 04:39:41;;;;;;;26.05;13.13;;;;;;;4.87;100.00;101871.38;5024597;28;20021;-70
2021/12/12 04:42:11;;;;;;;20.75;11.88;;;;;;;4.92;100.00;101877.16;5023664;28;20029;-70
2021/12/12 04:44:38;;;;;;;24.77;10.82;;;;;;;4.91;100.00;101883.59;5024199;28;20025;-70
2021/12/12 04:50:16;;;;;;;25.80;12.10;;;;;;;4.95;100.00;101888.56;5024486;28;20044;-70
2021/12/12 04:52:52;;;;;;;26.00;12.55;;;;;;;4.95;100.00;101887.69;5015014;28;20033;-70
2021/12/12 04:55:33;;;;;;;23.38;14.15;;;;;;;4.97;100.00;101887.53;5023809;28;20056;-69
2021/12/12 04:58:23;;;;;;;24.30;11.93;;;;;;;4.99;100.00;101875.47;5022483;28;20119;-70
2021/12/12 05:00:59;;;;;;;23.70;11.95;;;;;;;5.02;100.00;101875.13;5023172;28;20032;-70
2021/12/12 05:03:34;;;;;;;21.33;12.27;;;;;;;5.00;100.00;101889.91;5023738;28;20463;-70
2021/12/12 05:06:06;;;;;;;22.38;11.40;;;;;;;5.01;100.00;101889.75;5024574;28;20451;-70
2021/12/12 05:09:12;;;;;;;24.25;12.13;;;;;;;5.02;100.00;101890.59;5024426;28;20017;-70
2021/12/12 05:12:00;;;;;;;25.75;12.55;;;;;;;5.00;100.00;101896.22;4961939;28;20035;-70
2021/12/12 05:14:28;;;;;;;;;;;;;;;5.09;100.00;101906.09;4962203;28;20084;-70
2021/12/12 05:17:11;;;;;;;15.73;10.55;;;;;;;5.05;100.00;101907.44;4999297;28;19920;-70
2021/12/12 05:19:48;;;;;;;19.20;10.82;;;;;;;5.06;100.00;101902.84;5023467;28;20021;-70
2021/12/12 05:22:17;;;;;;;19.85;11.77;;;;;;;5.06;100.00;101902.84;5022435;28;20815;-70
2021/12/12 05:24:47;;;;;;;22.13;13.05;;;;;;;5.08;100.00;101906.28;5024024;28;20030;-70
2021/12/12 05:27:17;;;;;;;18.80;12.75;;;;;;;5.08;100.00;101906.28;5023309;28;20384;-69
2021/12/12 05:29:56;;;;;;;18.38;11.60;;;;;;;5.08;100.00;101904.41;5022527;28;20051;-70
2021/12/12 05:32:24;;;;;;;20.70;12.00;;;;;;;5.16;100.00;101898.09;5023222;28;20148;-69
2021/12/12 05:34:51;;;;;;;22.05;11.55;;;;;;;5.16;100.00;101893.50;5023688;28;20021;-70
2021/12/12 05:37:19;;;;;;;18.45;12.55;;;;;;;5.18;100.00;101898.78;5023566;28;20049;-70
2021/12/12 05:39:45;;;;;;;22.65;11.85;;;;;;;5.24;100.00;101913.59;5023088;28;20026;-70
2021/12/12 05:42:13;;;;;;;20.00;10.70;;;;;;;5.23;100.00;101911.91;5022491;28;20071;-70
2021/12/12 05:44:40;;;;;;;20.58;11.05;;;;;;;5.24;100.00;101916.31;5023191;28;20587;-69
2021/12/12 05:47:09;;;;;;;17.75;10.77;;;;;;;5.23;100.00;101912.75;5023404;28;20083;-69
2021/12/12 05:49:40;;;;;;;19.27;11.85;;;;;;;5.28;100.00;101912.25;5021757;28;20717;-69
2021/12/12 05:52:09;;;;;;;20.38;12.35;;;;;;;5.29;100.00;101901.19;5022702;28;20057;-69
2021/12/12 05:54:34;;;;;;;21.48;11.48;;;;;;;5.27;100.00;101903.22;5019662;28;20213;-69
2021/12/12 05:57:01;;;;;;;19.55;10.73;;;;;;;5.31;100.00;101906.44;5023475;28;20063;-70
2021/12/12 05:59:27;;;;;;;21.02;11.88;;;;;;;5.31;100.00;101909.16;5021060;28;20060;-70
2021/12/12 06:01:55;;;;;;;19.38;11.95;;;;;;;5.29;100.00;101911.22;5023289;28;20027;-70
2021/12/12 06:04:20;;;;;;;19.23;11.90;;;;;;;5.34;100.00;101896.06;5023713;28;20443;-70
2021/12/12 06:06:46;;;;;;;21.08;13.23;;;;;;;5.38;100.00;101912.94;5022432;28;20108;-69
2021/12/12 06:09:14;;;;;;;20.95;12.05;;;;;;;5.36;100.00;101914.97;5022134;28;20373;-69
2021/12/12 06:11:45;;;;;;;18.60;10.75;;;;;;;5.36;100.00;101917.69;5022348;28;20021;-70
2021/12/12 06:14:12;;;;;;;24.58;11.93;;;;;;;5.41;100.00;101928.91;5022294;28;20105;-70
2021/12/12 06:16:38;;;;;;;19.92;11.57;;;;;;;5.45;100.00;101922.13;5022657;28;20075;-70
2021/12/12 06:19:23;;;;;;;19.65;11.73;;;;;;;5.49;100.00;101920.75;5023591;28;20392;-70
2021/12/12 06:21:52;;;;;;;18.77;12.60;;;;;;;5.45;100.00;101919.38;5022912;28;20413;-70
2021/12/12 06:24:19;;;;;;;16.77;11.50;;;;;;;5.50;100.00;101927.06;5023326;28;20134;-70
2021/12/12 06:26:45;;;;;;;19.38;10.90;;;;;;;5.57;100.00;101918.00;5020852;28;20029;-70
2021/12/12 06:29:10;;;;;;;19.42;11.90;;;;;;;5.55;100.00;101921.94;5022520;28;20029;-70
2021/12/12 06:31:39;;;;;;;19.30;11.80;;;;;;;5.55;100.00;101924.66;5023027;28;20029;-70
2021/12/12 06:34:05;;;;;;;19.20;13.70;;;;;;;5.57;100.00;101923.44;5023376;28;20080;-70
2021/12/12 06:36:31;;;;;;;22.05;14.32;;;;;;;5.61;100.00;101929.41;5022989;28;20061;-70
2021/12/12 06:38:57;;;;;;;20.52;13.02;;;;;;;5.65;100.00;101944.41;5023389;28;20582;-70
2021/12/12 06:41:23;;;;;;;20.20;12.55;;;;;;;5.70;100.00;101933.84;5022222;28;20039;-70
2021/12/12 06:43:49;;;;;;;18.98;13.18;;;;;;;5.66;100.00;101938.78;5022478;28;20039;-70
2021/12/12 06:46:15;;;;;;;21.50;12.60;;;;;;;5.73;100.00;101934.38;5022507;28;20101;-70
2021/12/12 06:48:42;;;;;;;20.02;12.90;;;;;;;5.75;100.00;101936.91;5022960;28;20561;-70
2021/12/12 06:51:09;;;;;;;21.92;13.93;;;;;;;5.76;100.00;101932.31;5022899;28;20557;-70
2021/12/12 06:53:37;;;;;;;25.08;14.23;;;;;;;5.73;100.00;101936.25;5023392;28;20131;-70
2021/12/12 06:56:04;;;;;;;21.70;13.05;;;;;;;5.83;100.00;101927.84;5021027;28;20041;-70
2021/12/12 06:58:30;;;;;;;24.85;13.73;;;;;;;5.81;100.00;101929.91;5023536;28;20199;-70
2021/12/12 07:01:08;;;;;;;20.95;12.57;;;;;;;5.80;100.00;101929.06;5023034;28;20697;-71
2021/12/12 07:03:35;;;;;;;23.25;14.25;;;;;;;5.93;100.00;101934.88;5023930;28;20036;-70
2021/12/12 07:06:01;;;;;;;24.60;14.90;;;;;;;5.88;100.00;101923.59;5023077;28;20037;-70
2021/12/12 07:08:26;;;;;;;24.25;15.45;;;;;;;5.88;100.00;101914.56;5023420;28;20161;-70
2021/12/12 07:10:51;;;;;;;23.17;14.55;;;;;;;5.87;100.00;101919.16;5024645;28;20034;-70
2021/12/12 07:13:18;;;;;;;23.70;13.98;;;;;;;5.95;100.00;101915.59;5025821;28;20140;-70
2021/12/12 07:15:51;;;;;;;23.90;14.05;;;;;;;5.95;100.00;101931.97;5025776;28;20032;-70
2021/12/12 07:18:20;;;;;;;22.70;14.77;;;;;;;5.95;100.00;101938.28;5026261;28;20111;-70
2021/12/12 07:20:54;;;;;;;28.25;14.68;;;;;;;6.00;100.00;101932.28;5026386;28;20058;-70
2021/12/12 07:23:20;;;;;;;26.02;16.45;;;;;;;5.99;100.00;101925.16;5026288;28;20036;-70
2021/12/12 07:25:46;;;;;;;26.70;16.55;;;;;;;5.99;100.00;101930.59;5025766;28;20360;-70
2021/12/12 07:28:13;;;;;;;30.75;15.73;;;;;;;6.03;100.00;101934.66;5025115;28;20511;-69
2021/12/12 07:30:39;;;;;;;28.58;15.60;;;;;;;6.05;100.00;101937.22;5026780;28;20032;-69
2021/12/12 07:33:07;;;;;;;26.40;14.88;;;;;;;6.04;100.00;101941.00;5026311;28;20435;-69
2021/12/12 07:35:37;;;;;;;28.08;15.73;;;;;;;6.08;100.00;101940.44;5025470;28;20559;-70
2021/12/12 07:38:06;;;;;;;29.00;15.93;;;;;;;6.15;100.00;101941.47;5026525;28;20044;-69
2021/12/12 07:40:32;;;;;;;31.00;18.48;;;;;;;6.13;100.00;101942.66;5025518;28;20022;-70
2021/12/12 07:42:58;;;;;;;29.63;15.45;;;;;;;6.16;100.00;101942.31;5026582;28;20029;-70
2021/12/12 07:45:24;;;;;;;27.52;15.15;;;;;;;6.18;100.00;101946.56;5025142;28;20037;-70
2021/12/12 07:47:52;;;;;;;28.90;15.85;;;;;;;6.18;100.00;101957.50;5026099;28;20029;-70
2021/12/12 07:50:21;;;;;;;30.10;15.77;;;;;;;6.19;100.00;101951.00;5017398;28;20084;-70
2021/12/12 07:52:47;;;;;;;29.70;16.20;;;;;;;6.21;100.00;101956.28;5025685;28;20447;-70
2021/12/12 07:55:12;;;;;;;28.50;14.75;;;;;;;6.29;100.00;101960.88;5024537;28;20124;-70
2021/12/12 07:57:38;;;;;;;28.88;16.08;;;;;;;6.30;100.00;101954.38;5025350;28;20124;-69
2021/12/12 08:00:09;;;;;;;30.05;16.77;;;;;;;6.28;100.00;101964.59;5024414;28;20425;-69
2021/12/12 08:02:34;;;;;;;31.75;16.35;;;;;;;6.36;100.00;101961.84;5025487;28;20695;-70
2021/12/12 08:05:01;;;;;;;28.85;16.20;;;;;;;6.35;100.00;101961.00;5024130;28;20130;-70
2021/12/12 08:07:28;;;;;;;31.27;16.98;;;;;;;6.35;100.00;101965.63;5025159;28;20472;-70
2021/12/12 08:09:53;;;;;;;30.40;16.77;;;;;;;6.34;100.00;101972.09;5023630;28;20547;-70
2021/12/12 08:12:24;;;;;;;28.80;15.65;;;;;;;6.36;100.00;101979.06;5024125;28;20236;-69
2021/12/12 08:14:50;;;;;;;31.17;17.88;;;;;;;6.38;100.00;101981.63;5025168;28;20064;-70
2021/12/12 08:17:16;;;;;;;27.15;16.10;;;;;;;6.34;100.00;101986.59;5024658;28;20086;-70
2021/12/12 08:19:42;;;;;;;29.77;17.40;;;;;;;6.35;100.00;101988.28;5026005;28;20025;-70
2021/12/12 08:22:10;;;;;;;32.35;16.77;;;;;;;6.41;100.00;101986.75;5023076;28;20366;-70
2021/12/12 08:24:37;;;;;;;33.55;17.15;;;;;;;6.40;100.00;101993.22;5024850;28;20032;-70
2021/12/12 08:27:05;;;;;;;32.78;18.23;;;;;;;6.39;100.00;101997.00;5024044;28;20056;-69
2021/12/12 08:29:32;;;;;;;40.80;20.05;;;;;;;6.44;100.00;101998.16;5024699;28;20056;-70
2021/12/12 08:31:58;;;;;;;37.75;19.33;;;;;;;6.44;100.00;102000.03;5025550;28;20101;-70
2021/12/12 08:34:25;;;;;;;32.35;18.40;;;;;;;6.49;100.00;101998.50;5025535;28;20041;-71
2021/12/12 08:36:54;;;;;;;34.10;18.88;;;;;;;6.49;100.00;102003.09;5024391;28;20029;-71
2021/12/12 08:39:20;;;;;;;41.50;20.45;;;;;;;6.52;100.00;102000.00;5024557;28;20025;-70
2021/12/12 08:41:48;;;;;;;33.72;19.42;;;;;;;6.51;100.00;102011.94;5024917;28;20727;-71
2021/12/12 08:44:17;;;;;;;35.05;19.52;;;;;;;6.55;100.00;102007.84;5023736;28;20498;-71
2021/12/12 08:46:47;;;;;;;37.97;19.55;;;;;;;6.56;100.00;102011.44;5023880;28;20542;-71
2021/12/12 08:49:15;;;;;;;32.17;17.67;;;;;;;6.58;100.00;102012.94;5024388;28;20123;-71
2021/12/12 08:51:56;;;;;;;35.03;18.40;;;;;;;6.57;100.00;102016.69;5024581;28;20029;-70
2021/12/12 08:54:27;;;;;;;36.25;18.73;;;;;;;6.61;100.00;102014.47;5023576;28;20033;-70
2021/12/12 08:57:02;;;;;;;32.58;18.83;;;;;;;6.62;100.00;102022.47;5023374;28;20384;-71
2021/12/12 08:59:30;;;;;;;35.83;18.98;;;;;;;6.65;100.00;102016.69;5022763;28;20487;-70
2021/12/12 09:01:59;;;;;;;35.80;18.93;;;;;;;6.67;100.00;102020.06;5023118;28;20087;-71
2021/12/12 09:04:30;;;;;;;37.58;19.88;;;;;;;6.68;100.00;102016.31;5024598;28;20243;-70
2021/12/12 09:07:18;;;;;;;36.90;19.45;;;;;;;6.69;100.00;102023.50;5024404;28;20029;-70
2021/12/12 09:09:46;;;;;;;;;;;;;;;6.83;100.00;102029.22;5023482;28;20072;-70
2021/12/12 09:12:17;;;;;;;33.47;17.70;;;;;;;6.76;100.00;102029.94;5023190;28;19920;-70
2021/12/12 09:14:51;;;;;;;37.50;16.98;;;;;;;6.78;100.00;102042.56;5024574;28;20033;-69
2021/12/12 09:17:26;;;;;;;37.47;18.10;;;;;;;6.87;100.00;102036.03;5015603;28;20128;-71
2021/12/12 09:19:58;;;;;;;34.35;17.48;;;;;;;6.82;100.00;102046.66;5024169;28;20026;-70
2021/12/12 09:22:32;;;;;;;34.15;18.33;;;;;;;6.84;100.00;102047.31;5020911;28;20026;-70
2021/12/12 09:25:19;;;;;;;31.77;17.50;;;;;;;6.86;100.00;102058.94;5021582;28;20043;-70
2021/12/12 09:27:52;;;;;;;35.40;18.08;;;;;;;6.87;100.00;102052.44;5022541;28;20029;-70
2021/12/12 09:30:24;;;;;;;30.92;15.52;;;;;;;6.87;100.00;102053.28;5024292;28;20037;-70
2021/12/12 09:32:56;;;;;;;31.17;17.77;;;;;;;6.92;100.00;102060.94;5023246;28;20392;-70
2021/12/12 09:35:33;;;;;;;32.80;17.83;;;;;;;6.90;100.00;102063.00;5022828;28;20035;-70
2021/12/12 09:38:06;;;;;;;34.20;19.50;;;;;;;6.90;100.00;102066.59;5024860;28;20036;-70
2021/12/12 09:40:49;;;;;;;32.95;18.35;;;;;;;6.96;100.00;102063.16;5024186;28;20025;-69
2021/12/12 09:43:20;;;;;;;32.47;15.95;;;;;;;6.97;100.00;102058.53;5022913;28;20025;-70
2021/12/12 09:45:57;;;;;;;33.15;18.63;;;;;;;6.93;100.00;102066.22;5024044;28;20033;-70
2021/12/12 09:51:59;;;;;;;34.95;17.17;;;;;;;7.01;100.00;102071.66;5024927;28;20103;-70
2021/12/12 09:54:37;;;;;;;28.52;14.68;;;;;;;7.10;100.00;102072.50;5023978;28;20041;-70
2021/12/12 09:57:40;;;;;;;31.02;16.20;;;;;;;7.08;100.00;102066.31;5023237;28;20041;-70
2021/12/12 10:00:18;;;;;;;33.03;18.15;;;;;;;7.06;100.00;102065.66;5023505;28;20065;-69
2021/12/12 10:03:38;;;;;;;33.22;18.15;;;;;;;7.08;100.00;102060.88;5023640;28;20022;-70
2021/12/12 10:06:16;;;;;;;33.30;16.77;;;;;;;7.10;100.00;102063.44;4962675;28;20062;-69
2021/12/12 10:09:05;;;;;;;30.27;16.33;;;;;;;7.10;100.00;102063.44;5016478;28;20044;-70
2021/12/12 10:11:39;;;;;;;35.78;19.58;;;;;;;7.10;100.00;102063.44;5023406;28;20036;-70
2021/12/12 10:14:16;;;;;;;36.30;17.42;;;;;;;7.12;100.00;102072.28;5023692;28;20041;-69
2021/12/12 10:17:03;;;;;;;36.15;18.17;;;;;;;7.15;100.00;102061.88;5022089;28;20041;-70
2021/12/12 10:19:39;;;;;;;35.25;17.92;;;;;;;7.15;100.00;102061.88;5011599;28;20067;-70
2021/12/12 10:22:12;;;;;;;36.50;17.80;;;;;;;7.20;100.00;102064.91;5024325;28;20057;-70
2021/12/12 10:24:50;;;;;;;35.25;17.08;;;;;;;7.24;100.00;102068.97;5023854;28;20018;-70
2021/12/12 10:27:27;;;;;;;36.03;17.90;;;;;;;7.32;100.00;102057.16;5021775;28;20030;-70
2021/12/12 10:30:04;;;;;;;31.77;16.10;;;;;;;7.25;100.00;102067.13;5023309;28;20063;-70
2021/12/12 10:32:36;;;;;;;34.30;17.52;;;;;;;7.27;100.00;102073.25;5023622;28;20084;-70
2021/12/12 10:35:13;;;;;;;35.25;17.65;;;;;;;7.33;100.00;102068.94;5024116;28;20025;-70
2021/12/12 10:37:54;;;;;;;30.80;16.63;;;;;;;7.31;100.00;102066.41;5024351;28;20044;-70
2021/12/12 10:40:29;;;;;;;37.75;19.45;;;;;;;7.36;100.00;102071.31;5014516;28;20030;-70
2021/12/12 10:42:59;;;;;;;37.33;17.67;;;;;;;7.39;100.00;102062.75;5022211;28;20270;-70
2021/12/12 10:45:32;;;;;;;50.60;30.65;;;;;;;7.40;100.00;102070.78;5025165;28;20036;-70
2021/12/12 10:48:00;;;;;;;39.67;21.13;;;;;;;7.43;100.00;102072.28;5023124;28;20022;-71
2021/12/12 10:50:39;;;;;;;38.85;19.10;;;;;;;7.54;100.00;102071.88;5025696;28;20112;-71
2021/12/12 10:53:10;;;;;;;43.33;24.10;;;;;;;7.47;100.00;102076.38;5024808;28;20043;-70
2021/12/12 10:56:06;;;;;;;33.08;18.02;;;;;;;7.50;100.00;102068.69;5027452;28;20104;-71
2021/12/12 10:58:42;;;;;;;36.05;17.90;;;;;;;7.54;100.00;102075.47;5027113;28;20045;-69
2021/12/12 11:01:14;;;;;;;33.85;17.23;;;;;;;7.56;100.00;102072.56;5026729;28;20047;-70
2021/12/12 11:03:55;;;;;;;37.92;18.73;;;;;;;7.58;100.00;102069.66;5028414;28;20025;-70
2021/12/12 11:06:29;;;;;;;33.00;17.45;;;;;;;7.61;100.00;102064.69;5026223;28;20100;-70
2021/12/12 11:08:57;;;;;;;32.78;16.92;;;;;;;7.66;100.00;102064.13;5008040;28;20033;-70
2021/12/12 11:11:34;;;;;;;30.23;18.08;;;;;;;7.68;100.00;102068.38;5023211;28;20103;-70
2021/12/12 11:14:10;;;;;;;30.17;17.77;;;;;;;7.74;100.00;102070.38;5026980;28;20040;-70
2021/12/12 11:16:59;;;;;;;25.65;14.80;;;;;;;7.79;100.00;102064.34;5026995;28;20034;-70
2021/12/12 11:20:13;;;;;;;30.55;17.45;;;;;;;7.75;100.00;102061.13;5027749;28;20029;-70
2021/12/12 11:22:43;;;;;;;31.35;17.45;;;;;;;7.77;100.00;102059.09;5014299;28;20116;-70
2021/12/12 11:25:35;;;;;;;30.33;17.02;;;;;;;7.76;100.00;102065.59;5026341;28;20033;-69
2021/12/12 11:28:19;;;;;;;27.33;16.30;;;;;;;7.82;100.00;102057.69;5026947;28;20034;-70
2021/12/12 11:30:55;;;;;;;33.03;17.85;;;;;;;7.78;100.00;102065.41;5027079;28;20384;-70
2021/12/12 11:33:22;;;;;;;29.08;17.17;;;;;;;7.79;100.00;102065.22;5027334;28;20025;-70
2021/12/12 11:35:54;;;;;;;29.00;15.82;;;;;;;7.83;100.00;102059.38;5024686;28;20034;-70
2021/12/12 11:38:27;;;;;;;28.52;16.85;;;;;;;7.84;100.00;102064.66;5020435;28;20025;-70
2021/12/12 11:40:59;;;;;;;29.42;16.58;;;;;;;7.88;100.00;102056.94;5027529;28;20064;-70
2021/12/12 11:43:37;;;;;;;25.42;16.17;;;;;;;7.89;100.00;102064.13;5026600;28;20887;-70
2021/12/12 11:46:10;;;;;;;29.08;16.30;;;;;;;7.91;100.00;102068.38;5026720;28;20033;-69
2021/12/12 11:48:59;;;;;;;32.00;18.27;;;;;;;7.95;100.00;102063.38;5027517;28;20032;-70
2021/12/12 11:51:31;;;;;;;27.88;17.20;;;;;;;7.90;100.00;102060.34;5026574;28;20504;-69